sensor_id;sensor_type;location;lat;lon;timestamp;temperature;humidity
19403;DHT22;9837;48.888;8.998;2022-09-09T10:55:17;25.10;43.50
19403;DHT22;9837;48.888;8.998;2022-09-09T12:02:01;25.10;46.60
19403;DHT22;9837;48.888;8.998;2022-09-09T12:04:36;25.40;45.40
19403;DHT22;9837;48.888;8.998;2022-09-09T12:35:00;27.60;38.90
19403;DHT22;9837;48.888;8.998;2022-09-09T12:40:55;27.90;38.20
19403;DHT22;9837;48.888;8.998;2022-09-09T12:46:11;28.00;38.50
19403;DHT22;9837;48.888;8.998;2022-09-09T12:48:40;27.90;38.60
19403;DHT22;9837;48.888;8.998;2022-09-09T12:51:30;28.00;39.30
19403;DHT22;9837;48.888;8.998;2022-09-09T12:53:56;27.80;40.00
19403;DHT22;9837;48.888;8.998;2022-09-09T12:56:34;27.90;40.00
19403;DHT22;9837;48.888;8.998;2022-09-09T12:59:02;28.00;40.50
19403;DHT22;9837;48.888;8.998;2022-09-09T13:01:33;28.20;40.30
19403;DHT22;9837;48.888;8.998;2022-09-09T13:04:00;28.20;40.20
19403;DHT22;9837;48.888;8.998;2022-09-09T13:06:31;28.00;40.60
19403;DHT22;9837;48.888;8.998;2022-09-09T13:08:59;27.90;40.50
19403;DHT22;9837;48.888;8.998;2022-09-09T13:11:35;27.80;40.30
19403;DHT22;9837;48.888;8.998;2022-09-09T13:16:34;28.20;39.50
19403;DHT22;9837;48.888;8.998;2022-09-09T13:19:02;28.50;38.80
19403;DHT22;9837;48.888;8.998;2022-09-09T13:21:37;28.50;39.00
19403;DHT22;9837;48.888;8.998;2022-09-09T13:27:34;28.50;38.30
19403;DHT22;9837;48.888;8.998;2022-09-09T13:30:25;28.30;38.70
19403;DHT22;9837;48.888;8.998;2022-09-09T13:35:54;28.20;39.20
19403;DHT22;9837;48.888;8.998;2022-09-09T13:38:21;28.50;38.30
19403;DHT22;9837;48.888;8.998;2022-09-09T13:41:03;28.50;37.40
19403;DHT22;9837;48.888;8.998;2022-09-09T13:43:59;28.40;37.70
19403;DHT22;9837;48.888;8.998;2022-09-09T13:46:33;28.50;36.50
19403;DHT22;9837;48.888;8.998;2022-09-09T13:51:36;28.60;36.50
19403;DHT22;9837;48.888;8.998;2022-09-09T13:54:06;28.60;36.30
19403;DHT22;9837;48.888;8.998;2022-09-09T13:56:46;28.70;36.60
19403;DHT22;9837;48.888;8.998;2022-09-09T13:59:14;28.50;36.30
19403;DHT22;9837;48.888;8.998;2022-09-09T14:01:45;28.30;36.70
19403;DHT22;9837;48.888;8.998;2022-09-09T14:04:12;28.20;36.40
19403;DHT22;9837;48.888;8.998;2022-09-09T14:06:38;28.20;37.20
19403;DHT22;9837;48.888;8.998;2022-09-09T14:09:10;28.30;36.40
19403;DHT22;9837;48.888;8.998;2022-09-09T14:11:37;28.50;36.50
19403;DHT22;9837;48.888;8.998;2022-09-09T14:14:03;28.90;36.60
19403;DHT22;9837;48.888;8.998;2022-09-09T14:16:28;29.10;36.70
19403;DHT22;9837;48.888;8.998;2022-09-09T14:18:54;29.20;35.70
19403;DHT22;9837;48.888;8.998;2022-09-09T14:21:23;29.20;35.40
19403;DHT22;9837;48.888;8.998;2022-09-09T14:23:49;29.10;34.90
19403;DHT22;9837;48.888;8.998;2022-09-09T14:26:15;28.60;35.40
19403;DHT22;9837;48.888;8.998;2022-09-09T14:38:34;28.50;35.80
19403;DHT22;9837;48.888;8.998;2022-09-09T14:41:04;28.40;36.30
19403;DHT22;9837;48.888;8.998;2022-09-09T14:46:15;28.50;36.20
19403;DHT22;9837;48.888;8.998;2022-09-09T14:51:08;28.00;36.20
19403;DHT22;9837;48.888;8.998;2022-09-09T14:53:34;27.50;37.40
19403;DHT22;9837;48.888;8.998;2022-09-09T15:01:07;26.70;39.60
19403;DHT22;9837;48.888;8.998;2022-09-09T15:03:40;26.90;39.30
19403;DHT22;9837;48.888;8.998;2022-09-09T15:06:11;27.10;38.50
19403;DHT22;9837;48.888;8.998;2022-09-09T15:08:39;27.10;37.40
19403;DHT22;9837;48.888;8.998;2022-09-09T15:18:31;27.50;36.20
19403;DHT22;9837;48.888;8.998;2022-09-09T15:20:59;27.70;35.90
19403;DHT22;9837;48.888;8.998;2022-09-09T15:25:54;27.60;36.30
19403;DHT22;9837;48.888;8.998;2022-09-09T15:30:48;27.50;36.90
19403;DHT22;9837;48.888;8.998;2022-09-09T15:40:33;27.10;37.40
19403;DHT22;9837;48.888;8.998;2022-09-09T15:43:02;26.90;37.70
19403;DHT22;9837;48.888;8.998;2022-09-09T15:48:05;26.70;38.40
19403;DHT22;9837;48.888;8.998;2022-09-09T15:50:33;26.60;38.40
19403;DHT22;9837;48.888;8.998;2022-09-09T15:53:01;26.40;38.80
19403;DHT22;9837;48.888;8.998;2022-09-09T16:00:24;25.90;39.90
19403;DHT22;9837;48.888;8.998;2022-09-09T16:02:50;25.70;39.70
19403;DHT22;9837;48.888;8.998;2022-09-09T16:07:42;25.00;42.80
19403;DHT22;9837;48.888;8.998;2022-09-09T16:10:11;24.30;44.10
19403;DHT22;9837;48.888;8.998;2022-09-09T16:20:03;22.50;50.40
19403;DHT22;9837;48.888;8.998;2022-09-09T16:44:30;21.60;55.40
19403;DHT22;9837;48.888;8.998;2022-09-09T16:51:49;21.50;56.70
19403;DHT22;9837;48.888;8.998;2022-09-09T16:56:47;21.40;57.20
19403;DHT22;9837;48.888;8.998;2022-09-09T16:59:15;21.40;57.20
19403;DHT22;9837;48.888;8.998;2022-09-09T17:01:45;21.60;56.70
19403;DHT22;9837;48.888;8.998;2022-09-09T17:04:13;21.80;56.80
19403;DHT22;9837;48.888;8.998;2022-09-09T17:06:48;22.00;56.00
19403;DHT22;9837;48.888;8.998;2022-09-09T17:14:09;22.10;55.50
19403;DHT22;9837;48.888;8.998;2022-09-09T17:16:36;22.00;55.70
19403;DHT22;9837;48.888;8.998;2022-09-09T17:19:05;22.00;55.80
19403;DHT22;9837;48.888;8.998;2022-09-09T17:21:32;22.10;55.90
19403;DHT22;9837;48.888;8.998;2022-09-09T17:26:26;22.20;55.70
19403;DHT22;9837;48.888;8.998;2022-09-09T17:33:48;22.20;55.80
19403;DHT22;9837;48.888;8.998;2022-09-09T17:36:16;22.10;55.50
19403;DHT22;9837;48.888;8.998;2022-09-09T17:41:22;22.00;55.70
19403;DHT22;9837;48.888;8.998;2022-09-09T17:46:32;21.80;56.10
19403;DHT22;9837;48.888;8.998;2022-09-09T17:49:02;21.80;56.20
19403;DHT22;9837;48.888;8.998;2022-09-09T17:51:29;21.70;55.80
19403;DHT22;9837;48.888;8.998;2022-09-09T17:53:58;21.70;55.90
19403;DHT22;9837;48.888;8.998;2022-09-09T17:56:26;21.80;55.90
19403;DHT22;9837;48.888;8.998;2022-09-09T18:01:23;21.80;55.80
19403;DHT22;9837;48.888;8.998;2022-09-09T18:03:50;21.90;55.70
19403;DHT22;9837;48.888;8.998;2022-09-09T18:06:27;21.90;55.40
19403;DHT22;9837;48.888;8.998;2022-09-09T18:09:15;21.90;55.00
19403;DHT22;9837;48.888;8.998;2022-09-09T18:11:45;21.90;55.00
19403;DHT22;9837;48.888;8.998;2022-09-09T18:14:13;21.90;55.10
19403;DHT22;9837;48.888;8.998;2022-09-09T18:19:09;21.80;54.30
19403;DHT22;9837;48.888;8.998;2022-09-09T18:24:05;21.70;54.30
19403;DHT22;9837;48.888;8.998;2022-09-09T18:26:33;21.70;54.40
19403;DHT22;9837;48.888;8.998;2022-09-09T18:29:13;21.80;54.60
19403;DHT22;9837;48.888;8.998;2022-09-09T18:31:40;21.80;55.20
19403;DHT22;9837;48.888;8.998;2022-09-09T18:34:08;21.80;55.50
19403;DHT22;9837;48.888;8.998;2022-09-09T18:36:37;21.80;55.20
19403;DHT22;9837;48.888;8.998;2022-09-09T18:39:05;21.80;55.30
19403;DHT22;9837;48.888;8.998;2022-09-09T18:41:40;21.80;55.70
19403;DHT22;9837;48.888;8.998;2022-09-09T18:44:15;21.80;55.90
19403;DHT22;9837;48.888;8.998;2022-09-09T18:46:42;21.80;56.10
19403;DHT22;9837;48.888;8.998;2022-09-09T18:49:08;21.80;56.00
19403;DHT22;9837;48.888;8.998;2022-09-09T18:51:36;21.70;55.50
19403;DHT22;9837;48.888;8.998;2022-09-09T18:54:07;21.60;55.00
19403;DHT22;9837;48.888;8.998;2022-09-09T18:56:34;21.40;55.50
19403;DHT22;9837;48.888;8.998;2022-09-09T18:59:01;21.40;55.80
19403;DHT22;9837;48.888;8.998;2022-09-09T19:01:28;21.40;55.70
19403;DHT22;9837;48.888;8.998;2022-09-09T19:03:55;21.50;55.70
19403;DHT22;9837;48.888;8.998;2022-09-09T19:06:26;21.60;55.40
19403;DHT22;9837;48.888;8.998;2022-09-09T19:08:52;21.60;55.40
19403;DHT22;9837;48.888;8.998;2022-09-09T19:11:20;21.50;55.30
19403;DHT22;9837;48.888;8.998;2022-09-09T19:14:00;21.50;55.50
19403;DHT22;9837;48.888;8.998;2022-09-09T19:16:29;21.50;55.50
19403;DHT22;9837;48.888;8.998;2022-09-09T19:18:58;21.60;55.40
19403;DHT22;9837;48.888;8.998;2022-09-09T19:21:30;21.60;54.90
19403;DHT22;9837;48.888;8.998;2022-09-09T19:24:01;21.60;54.80
19403;DHT22;9837;48.888;8.998;2022-09-09T19:26:30;21.60;54.80
19403;DHT22;9837;48.888;8.998;2022-09-09T19:28:57;21.60;54.80
19403;DHT22;9837;48.888;8.998;2022-09-09T19:33:52;21.70;54.90
19403;DHT22;9837;48.888;8.998;2022-09-09T19:36:20;21.70;54.80
19403;DHT22;9837;48.888;8.998;2022-09-09T19:38:47;21.70;54.80
19403;DHT22;9837;48.888;8.998;2022-09-09T19:41:19;21.70;54.70
19403;DHT22;9837;48.888;8.998;2022-09-09T19:43:46;21.60;54.80
19403;DHT22;9837;48.888;8.998;2022-09-09T19:46:13;21.60;54.80
19403;DHT22;9837;48.888;8.998;2022-09-09T19:48:40;21.60;54.70
19403;DHT22;9837;48.888;8.998;2022-09-09T19:51:12;21.40;54.80
19403;DHT22;9837;48.888;8.998;2022-09-09T19:53:43;21.40;54.80
19403;DHT22;9837;48.888;8.998;2022-09-09T19:56:10;21.40;55.00
19403;DHT22;9837;48.888;8.998;2022-09-09T19:58:37;21.40;55.20
19403;DHT22;9837;48.888;8.998;2022-09-09T20:01:25;21.40;54.90
19403;DHT22;9837;48.888;8.998;2022-09-09T20:03:53;21.40;54.90
19403;DHT22;9837;48.888;8.998;2022-09-09T20:06:24;21.40;54.80
19403;DHT22;9837;48.888;8.998;2022-09-09T20:08:54;21.50;54.90
19403;DHT22;9837;48.888;8.998;2022-09-09T20:11:21;21.50;54.70
19403;DHT22;9837;48.888;8.998;2022-09-09T20:13:48;21.40;54.60
19403;DHT22;9837;48.888;8.998;2022-09-09T20:16:16;21.30;54.70
19403;DHT22;9837;48.888;8.998;2022-09-09T20:18:45;21.40;54.70
19403;DHT22;9837;48.888;8.998;2022-09-09T20:21:17;21.40;54.70
19403;DHT22;9837;48.888;8.998;2022-09-09T20:23:46;21.50;54.50
19403;DHT22;9837;48.888;8.998;2022-09-09T20:26:14;21.50;54.40
19403;DHT22;9837;48.888;8.998;2022-09-09T20:28:43;21.50;54.40
19403;DHT22;9837;48.888;8.998;2022-09-09T20:31:12;21.50;54.50
19403;DHT22;9837;48.888;8.998;2022-09-09T20:33:39;21.50;54.50
19403;DHT22;9837;48.888;8.998;2022-09-09T20:36:09;21.50;54.50
19403;DHT22;9837;48.888;8.998;2022-09-09T20:38:36;21.30;54.50
19403;DHT22;9837;48.888;8.998;2022-09-09T20:41:03;21.50;54.60
19403;DHT22;9837;48.888;8.998;2022-09-09T20:43:29;21.50;54.60
19403;DHT22;9837;48.888;8.998;2022-09-09T20:45:54;21.50;54.50
19403;DHT22;9837;48.888;8.998;2022-09-09T20:48:23;21.50;54.30
19403;DHT22;9837;48.888;8.998;2022-09-09T20:50:49;21.50;54.60
19403;DHT22;9837;48.888;8.998;2022-09-09T20:55:41;21.40;55.20
19403;DHT22;9837;48.888;8.998;2022-09-09T21:02:58;21.20;55.60
19403;DHT22;9837;48.888;8.998;2022-09-09T21:07:51;21.30;55.50
19403;DHT22;9837;48.888;8.998;2022-09-09T21:12:44;21.30;55.80
19403;DHT22;9837;48.888;8.998;2022-09-09T21:17:36;21.30;56.10
19403;DHT22;9837;48.888;8.998;2022-09-09T21:20:05;21.20;56.30
19403;DHT22;9837;48.888;8.998;2022-09-09T21:22:31;21.10;56.50
19403;DHT22;9837;48.888;8.998;2022-09-09T21:24:56;21.10;56.60
19403;DHT22;9837;48.888;8.998;2022-09-09T21:44:26;20.70;56.30
19403;DHT22;9837;48.888;8.998;2022-09-09T21:56:38;20.30;57.20
19403;DHT22;9837;48.888;8.998;2022-09-09T21:59:04;20.00;57.60
19403;DHT22;9837;48.888;8.998;2022-09-09T22:01:30;20.10;57.50
19403;DHT22;9837;48.888;8.998;2022-09-09T22:03:58;20.00;57.80
19403;DHT22;9837;48.888;8.998;2022-09-09T22:06:25;20.10;57.70
19403;DHT22;9837;48.888;8.998;2022-09-09T22:08:52;20.20;57.20
19403;DHT22;9837;48.888;8.998;2022-09-09T22:11:21;20.30;57.10
19403;DHT22;9837;48.888;8.998;2022-09-09T22:16:16;20.60;56.60
19403;DHT22;9837;48.888;8.998;2022-09-09T22:18:42;20.70;56.20
